This is the latest recevied weather packets stored in our database for station/object LU4EGV-13. If no packets are shown the sender has not sent any weather packets the latest 10 day(s).
| Time | Temp. | Humidity | Pressure | Rain* | Wind** | Luminosity | Snow |
|---|---|---|---|---|---|---|---|
| 1778136892 | 17.78° C | 97% | 997.7 hPa | 0 mm | - | - | - |
| 1778136287 | 17.78° C | 97% | 999.2 hPa | 0 mm | - | - | - |
| 1778135681 | 17.78° C | 97% | 1000.1 hPa | 0 mm | - | - | - |
| 1778135075 | 17.78° C | 97% | 1000.6 hPa | 0 mm | - | - | - |
| 1778134471 | 17.78° C | 97% | 1000.5 hPa | 0 mm | - | - | - |
| 1778133886 | 17.78° C | 96% | 1000.9 hPa | 0 mm | - | - | - |
| 1778133732 | 17.78° C | 96% | 1000 hPa | - | - | - | - |
| 1778133260 | 17.78° C | 96% | 1000 hPa | 0 mm | - | - | - |
| 1778132653 | 17.78° C | 96% | 1000.3 hPa | 0 mm | - | - | - |
| 1778132045 | 17.78° C | 96% | 1000.4 hPa | 0 mm | - | - | - |
| 1778131439 | 17.78° C | 96% | 999.2 hPa | 0 mm | - | - | - |
| 1778130833 | 17.78° C | 97% | 998.9 hPa | 0 mm | - | - | - |
| 1778130227 | 17.78° C | 97% | 999.1 hPa | 0 mm | - | - | - |
| 1778129621 | 17.78° C | 95% | 999.2 hPa | 0 mm | - | - | - |
| 1778129015 | 17.78° C | 96% | 1000.3 hPa | 0 mm | - | - | - |
| 1778128408 | 17.78° C | 95% | 998.8 hPa | 0 mm | - | - | - |
| 1778127803 | 17.78° C | 95% | 999.4 hPa | 0 mm | - | - | - |
| 1778127200 | 17.78° C | 96% | 998.6 hPa | 0 mm | - | - | - |
| 1778126590 | 18.33° C | 95% | 998.9 hPa | 0 mm | - | - | - |
| 1778125984 | 18.89° C | 93% | 999.8 hPa | 0 mm | - | - | - |
| 1778125377 | 19.44° C | 91% | 998.8 hPa | 0 mm | - | - | - |
| 1778124771 | 20.56° C | 88% | 998.7 hPa | 0 mm | - | - | - |
| 1778124165 | 20.56° C | 86% | 997.9 hPa | 0 mm | - | - | - |
| 1778123559 | 21.67° C | 78% | 998.1 hPa | 0 mm | - | - | - |
| 1778122952 | 23.33° C | 72% | 998.9 hPa | 0 mm | - | - | - |
* Rain latest hour (hover to see other rain measurements)
** Current wind speed in m/s (hover to see current wind gust speed)